sensor_id;sensor_type;location;lat;lon;timestamp;temperature;humidity
1614;DHT22;800;48.824;9.346;2023-01-15T00:00:40;14.80;60.40
1614;DHT22;800;48.824;9.346;2023-01-15T00:03:06;14.60;60.80
1614;DHT22;800;48.824;9.346;2023-01-15T00:05:35;14.60;61.00
1614;DHT22;800;48.824;9.346;2023-01-15T00:08:00;14.70;61.60
1614;DHT22;800;48.824;9.346;2023-01-15T00:10:27;14.60;61.60
1614;DHT22;800;48.824;9.346;2023-01-15T00:12:52;14.70;61.60
1614;DHT22;800;48.824;9.346;2023-01-15T00:15:18;15.00;61.10
1614;DHT22;800;48.824;9.346;2023-01-15T00:17:43;15.00;60.80
1614;DHT22;800;48.824;9.346;2023-01-15T00:20:09;15.00;60.60
1614;DHT22;800;48.824;9.346;2023-01-15T00:22:35;15.00;60.70
1614;DHT22;800;48.824;9.346;2023-01-15T00:25:01;15.10;61.10
1614;DHT22;800;48.824;9.346;2023-01-15T00:27:45;15.20;60.90
1614;DHT22;800;48.824;9.346;2023-01-15T00:30:13;15.30;60.80
1614;DHT22;800;48.824;9.346;2023-01-15T00:32:39;15.30;60.80
1614;DHT22;800;48.824;9.346;2023-01-15T00:35:06;15.30;60.10
1614;DHT22;800;48.824;9.346;2023-01-15T00:37:31;15.30;59.90
1614;DHT22;800;48.824;9.346;2023-01-15T00:39:57;15.30;60.00
1614;DHT22;800;48.824;9.346;2023-01-15T00:42:22;15.40;59.90
1614;DHT22;800;48.824;9.346;2023-01-15T00:44:48;15.10;59.80
1614;DHT22;800;48.824;9.346;2023-01-15T00:47:14;15.00;60.50
1614;DHT22;800;48.824;9.346;2023-01-15T00:49:43;15.10;60.20
1614;DHT22;800;48.824;9.346;2023-01-15T00:52:09;15.20;60.10
1614;DHT22;800;48.824;9.346;2023-01-15T00:54:35;15.30;59.70
1614;DHT22;800;48.824;9.346;2023-01-15T00:57:01;15.20;59.90
1614;DHT22;800;48.824;9.346;2023-01-15T00:59:26;15.30;59.40
1614;DHT22;800;48.824;9.346;2023-01-15T01:01:52;15.30;59.30
1614;DHT22;800;48.824;9.346;2023-01-15T01:04:17;15.20;59.40
1614;DHT22;800;48.824;9.346;2023-01-15T01:06:43;15.30;59.30
1614;DHT22;800;48.824;9.346;2023-01-15T01:09:13;15.30;59.00
1614;DHT22;800;48.824;9.346;2023-01-15T01:11:39;15.40;59.10
1614;DHT22;800;48.824;9.346;2023-01-15T01:14:04;15.50;58.70
1614;DHT22;800;48.824;9.346;2023-01-15T01:16:35;15.40;58.50
1614;DHT22;800;48.824;9.346;2023-01-15T01:19:16;15.30;59.00
1614;DHT22;800;48.824;9.346;2023-01-15T01:21:42;15.40;59.00
1614;DHT22;800;48.824;9.346;2023-01-15T01:24:16;15.30;58.90
1614;DHT22;800;48.824;9.346;2023-01-15T01:26:42;15.40;58.80
1614;DHT22;800;48.824;9.346;2023-01-15T01:29:11;15.20;58.50
1614;DHT22;800;48.824;9.346;2023-01-15T01:31:37;15.10;58.70
1614;DHT22;800;48.824;9.346;2023-01-15T01:34:03;15.20;58.90
1614;DHT22;800;48.824;9.346;2023-01-15T01:36:31;15.40;58.50
1614;DHT22;800;48.824;9.346;2023-01-15T01:38:57;15.20;58.50
1614;DHT22;800;48.824;9.346;2023-01-15T01:41:24;15.40;58.70
1614;DHT22;800;48.824;9.346;2023-01-15T01:44:06;15.50;58.30
1614;DHT22;800;48.824;9.346;2023-01-15T01:46:34;15.50;58.60
1614;DHT22;800;48.824;9.346;2023-01-15T01:49:07;15.60;58.60
1614;DHT22;800;48.824;9.346;2023-01-15T01:51:39;15.70;58.30
1614;DHT22;800;48.824;9.346;2023-01-15T01:54:06;15.70;58.20
1614;DHT22;800;48.824;9.346;2023-01-15T01:56:34;15.50;58.60
1614;DHT22;800;48.824;9.346;2023-01-15T01:59:02;15.60;58.80
1614;DHT22;800;48.824;9.346;2023-01-15T02:01:28;15.50;59.10
1614;DHT22;800;48.824;9.346;2023-01-15T02:03:54;15.60;59.00
1614;DHT22;800;48.824;9.346;2023-01-15T02:06:21;15.70;59.00
1614;DHT22;800;48.824;9.346;2023-01-15T02:08:48;15.70;58.90
1614;DHT22;800;48.824;9.346;2023-01-15T02:11:18;15.80;58.80
1614;DHT22;800;48.824;9.346;2023-01-15T02:13:52;15.80;58.70
1614;DHT22;800;48.824;9.346;2023-01-15T02:16:39;15.80;58.80
1614;DHT22;800;48.824;9.346;2023-01-15T02:21:45;15.80;59.30
1614;DHT22;800;48.824;9.346;2023-01-15T02:24:33;15.60;59.50
1614;DHT22;800;48.824;9.346;2023-01-15T02:27:09;15.60;59.70
1614;DHT22;800;48.824;9.346;2023-01-15T02:29:47;15.50;59.60
1614;DHT22;800;48.824;9.346;2023-01-15T02:32:25;15.50;59.60
1614;DHT22;800;48.824;9.346;2023-01-15T02:34:55;15.30;60.30
1614;DHT22;800;48.824;9.346;2023-01-15T02:37:29;15.40;60.60
1614;DHT22;800;48.824;9.346;2023-01-15T02:39:58;15.40;60.40
1614;DHT22;800;48.824;9.346;2023-01-15T02:42:26;15.50;60.20
1614;DHT22;800;48.824;9.346;2023-01-15T02:44:54;15.50;60.10
1614;DHT22;800;48.824;9.346;2023-01-15T02:47:25;15.50;60.20
1614;DHT22;800;48.824;9.346;2023-01-15T02:49:54;15.70;60.00
1614;DHT22;800;48.824;9.346;2023-01-15T02:52:24;15.60;59.90
1614;DHT22;800;48.824;9.346;2023-01-15T02:55:02;15.50;60.20
1614;DHT22;800;48.824;9.346;2023-01-15T02:57:32;15.60;60.20
1614;DHT22;800;48.824;9.346;2023-01-15T03:00:03;15.60;60.20
1614;DHT22;800;48.824;9.346;2023-01-15T03:02:34;15.80;59.80
1614;DHT22;800;48.824;9.346;2023-01-15T03:05:21;15.80;59.70
1614;DHT22;800;48.824;9.346;2023-01-15T03:07:55;15.70;59.80
1614;DHT22;800;48.824;9.346;2023-01-15T03:10:34;15.70;60.60
1614;DHT22;800;48.824;9.346;2023-01-15T03:13:02;15.50;61.00
1614;DHT22;800;48.824;9.346;2023-01-15T03:18:23;15.60;61.40
1614;DHT22;800;48.824;9.346;2023-01-15T03:20:53;15.70;61.30
1614;DHT22;800;48.824;9.346;2023-01-15T03:23:22;15.70;61.60
1614;DHT22;800;48.824;9.346;2023-01-15T03:25:50;15.70;61.80
1614;DHT22;800;48.824;9.346;2023-01-15T03:28:20;15.80;62.00
1614;DHT22;800;48.824;9.346;2023-01-15T03:30:47;15.80;61.30
1614;DHT22;800;48.824;9.346;2023-01-15T03:33:13;15.70;61.30
1614;DHT22;800;48.824;9.346;2023-01-15T03:35:54;15.80;61.60
1614;DHT22;800;48.824;9.346;2023-01-15T03:38:26;16.00;61.20
1614;DHT22;800;48.824;9.346;2023-01-15T03:44:09;16.10;60.90
1614;DHT22;800;48.824;9.346;2023-01-15T03:49:24;16.20;60.00
1614;DHT22;800;48.824;9.346;2023-01-15T03:54:29;16.10;60.60
1614;DHT22;800;48.824;9.346;2023-01-15T03:57:04;16.10;60.40
1614;DHT22;800;48.824;9.346;2023-01-15T03:59:36;16.10;60.30
1614;DHT22;800;48.824;9.346;2023-01-15T04:02:05;15.90;60.70
1614;DHT22;800;48.824;9.346;2023-01-15T04:04:33;15.60;61.10
1614;DHT22;800;48.824;9.346;2023-01-15T04:06:59;15.70;61.80
1614;DHT22;800;48.824;9.346;2023-01-15T04:09:25;15.80;61.30
1614;DHT22;800;48.824;9.346;2023-01-15T04:11:51;16.00;61.00
1614;DHT22;800;48.824;9.346;2023-01-15T04:14:17;16.10;60.70
1614;DHT22;800;48.824;9.346;2023-01-15T04:16:42;15.90;60.60
1614;DHT22;800;48.824;9.346;2023-01-15T04:19:08;15.90;61.20
1614;DHT22;800;48.824;9.346;2023-01-15T04:21:33;16.00;61.80
1614;DHT22;800;48.824;9.346;2023-01-15T04:23:59;16.10;60.70
1614;DHT22;800;48.824;9.346;2023-01-15T04:26:24;16.10;60.60
1614;DHT22;800;48.824;9.346;2023-01-15T04:28:50;16.00;61.10
1614;DHT22;800;48.824;9.346;2023-01-15T04:31:16;16.00;61.00
1614;DHT22;800;48.824;9.346;2023-01-15T04:33:41;16.00;60.90
1614;DHT22;800;48.824;9.346;2023-01-15T04:36:07;16.00;61.00
1614;DHT22;800;48.824;9.346;2023-01-15T04:38:33;16.10;61.00
1614;DHT22;800;48.824;9.346;2023-01-15T04:41:00;16.00;60.90
1614;DHT22;800;48.824;9.346;2023-01-15T04:43:45;16.00;61.20
1614;DHT22;800;48.824;9.346;2023-01-15T04:46:29;15.90;61.40
1614;DHT22;800;48.824;9.346;2023-01-15T04:48:54;15.80;61.90
1614;DHT22;800;48.824;9.346;2023-01-15T04:51:20;16.00;61.70
1614;DHT22;800;48.824;9.346;2023-01-15T04:53:46;15.90;61.60
1614;DHT22;800;48.824;9.346;2023-01-15T04:56:11;15.60;62.30
1614;DHT22;800;48.824;9.346;2023-01-15T04:58:37;15.70;62.80
1614;DHT22;800;48.824;9.346;2023-01-15T05:01:15;15.70;62.80
1614;DHT22;800;48.824;9.346;2023-01-15T05:03:41;15.70;62.80
1614;DHT22;800;48.824;9.346;2023-01-15T05:06:07;15.80;62.40
1614;DHT22;800;48.824;9.346;2023-01-15T05:08:33;15.70;62.60
1614;DHT22;800;48.824;9.346;2023-01-15T05:11:03;15.50;62.70
1614;DHT22;800;48.824;9.346;2023-01-15T05:13:30;15.50;63.40
1614;DHT22;800;48.824;9.346;2023-01-15T05:16:16;15.70;63.10
1614;DHT22;800;48.824;9.346;2023-01-15T05:18:43;15.80;62.70
1614;DHT22;800;48.824;9.346;2023-01-15T05:21:17;15.90;62.60
1614;DHT22;800;48.824;9.346;2023-01-15T05:23:43;15.90;62.80
1614;DHT22;800;48.824;9.346;2023-01-15T05:26:09;15.60;62.90
1614;DHT22;800;48.824;9.346;2023-01-15T05:28:35;15.50;64.20
1614;DHT22;800;48.824;9.346;2023-01-15T05:31:27;15.50;66.50
1614;DHT22;800;48.824;9.346;2023-01-15T05:33:54;15.40;67.10
1614;DHT22;800;48.824;9.346;2023-01-15T05:36:22;15.10;68.50
1614;DHT22;800;48.824;9.346;2023-01-15T05:38:48;14.90;69.90
1614;DHT22;800;48.824;9.346;2023-01-15T05:41:16;14.50;70.80
1614;DHT22;800;48.824;9.346;2023-01-15T05:44:04;14.50;70.70
1614;DHT22;800;48.824;9.346;2023-01-15T05:46:32;14.40;70.70
1614;DHT22;800;48.824;9.346;2023-01-15T05:49:02;14.40;70.90
1614;DHT22;800;48.824;9.346;2023-01-15T05:51:28;14.30;71.00
1614;DHT22;800;48.824;9.346;2023-01-15T05:53:57;14.40;70.30
1614;DHT22;800;48.824;9.346;2023-01-15T05:56:23;14.20;70.20
1614;DHT22;800;48.824;9.346;2023-01-15T05:58:49;14.20;69.70
1614;DHT22;800;48.824;9.346;2023-01-15T06:01:14;14.10;70.10
1614;DHT22;800;48.824;9.346;2023-01-15T06:03:40;14.10;69.90
1614;DHT22;800;48.824;9.346;2023-01-15T06:06:06;14.10;69.40
1614;DHT22;800;48.824;9.346;2023-01-15T06:08:32;14.10;68.90
1614;DHT22;800;48.824;9.346;2023-01-15T06:10:57;14.10;68.70
1614;DHT22;800;48.824;9.346;2023-01-15T06:13:23;14.00;69.30
1614;DHT22;800;48.824;9.346;2023-01-15T06:15:49;14.00;68.30
1614;DHT22;800;48.824;9.346;2023-01-15T06:18:14;13.80;68.60
1614;DHT22;800;48.824;9.346;2023-01-15T06:20:41;13.80;69.10
1614;DHT22;800;48.824;9.346;2023-01-15T06:23:07;13.80;69.00
1614;DHT22;800;48.824;9.346;2023-01-15T06:25:37;13.90;68.50
1614;DHT22;800;48.824;9.346;2023-01-15T06:28:03;13.90;68.20
1614;DHT22;800;48.824;9.346;2023-01-15T06:30:29;14.00;68.10
1614;DHT22;800;48.824;9.346;2023-01-15T06:32:55;13.90;67.80
1614;DHT22;800;48.824;9.346;2023-01-15T06:35:20;14.10;67.40
1614;DHT22;800;48.824;9.346;2023-01-15T06:37:48;14.00;66.90
1614;DHT22;800;48.824;9.346;2023-01-15T06:40:14;13.90;67.50
1614;DHT22;800;48.824;9.346;2023-01-15T06:42:40;13.70;67.50
1614;DHT22;800;48.824;9.346;2023-01-15T06:45:24;13.70;67.60
1614;DHT22;800;48.824;9.346;2023-01-15T06:48:08;13.70;66.80
1614;DHT22;800;48.824;9.346;2023-01-15T06:50:34;13.40;66.90
1614;DHT22;800;48.824;9.346;2023-01-15T06:52:59;13.60;67.00
1614;DHT22;800;48.824;9.346;2023-01-15T06:55:25;13.40;66.10
1614;DHT22;800;48.824;9.346;2023-01-15T06:57:51;13.20;65.90
1614;DHT22;800;48.824;9.346;2023-01-15T07:00:16;13.10;65.80
1614;DHT22;800;48.824;9.346;2023-01-15T07:02:42;13.00;66.20
1614;DHT22;800;48.824;9.346;2023-01-15T07:05:08;12.90;66.50
1614;DHT22;800;48.824;9.346;2023-01-15T07:07:34;12.60;67.20
1614;DHT22;800;48.824;9.346;2023-01-15T07:09:59;12.50;67.60
1614;DHT22;800;48.824;9.346;2023-01-15T07:12:25;12.40;68.20
1614;DHT22;800;48.824;9.346;2023-01-15T07:14:51;12.60;68.00
1614;DHT22;800;48.824;9.346;2023-01-15T07:17:17;12.40;67.30
1614;DHT22;800;48.824;9.346;2023-01-15T07:19:43;12.30;67.60
1614;DHT22;800;48.824;9.346;2023-01-15T07:22:09;12.10;67.00
1614;DHT22;800;48.824;9.346;2023-01-15T07:24:35;11.80;67.30
1614;DHT22;800;48.824;9.346;2023-01-15T07:27:01;11.90;67.70
1614;DHT22;800;48.824;9.346;2023-01-15T07:29:27;12.10;66.80
1614;DHT22;800;48.824;9.346;2023-01-15T07:31:53;12.20;66.10
1614;DHT22;800;48.824;9.346;2023-01-15T07:34:19;12.10;65.50
1614;DHT22;800;48.824;9.346;2023-01-15T07:36:44;12.00;65.90
1614;DHT22;800;48.824;9.346;2023-01-15T07:39:10;11.90;65.90
1614;DHT22;800;48.824;9.346;2023-01-15T07:41:37;11.90;66.00
1614;DHT22;800;48.824;9.346;2023-01-15T07:44:22;11.90;65.50
1614;DHT22;800;48.824;9.346;2023-01-15T07:47:20;11.60;66.30
1614;DHT22;800;48.824;9.346;2023-01-15T07:50:07;11.70;67.00
1614;DHT22;800;48.824;9.346;2023-01-15T07:52:33;11.70;66.20
1614;DHT22;800;48.824;9.346;2023-01-15T07:55:00;11.70;66.10
1614;DHT22;800;48.824;9.346;2023-01-15T07:57:28;11.80;66.00
1614;DHT22;800;48.824;9.346;2023-01-15T07:59:57;11.70;65.90
1614;DHT22;800;48.824;9.346;2023-01-15T08:02:22;11.80;65.60
1614;DHT22;800;48.824;9.346;2023-01-15T08:04:48;11.80;65.10
1614;DHT22;800;48.824;9.346;2023-01-15T08:07:14;11.80;65.30
1614;DHT22;800;48.824;9.346;2023-01-15T08:09:40;11.90;65.40
1614;DHT22;800;48.824;9.346;2023-01-15T08:12:06;12.00;65.00
1614;DHT22;800;48.824;9.346;2023-01-15T08:14:50;12.00;64.70
1614;DHT22;800;48.824;9.346;2023-01-15T08:17:51;12.10;64.80
1614;DHT22;800;48.824;9.346;2023-01-15T08:20:23;12.10;64.40
1614;DHT22;800;48.824;9.346;2023-01-15T08:22:50;12.30;64.00
1614;DHT22;800;48.824;9.346;2023-01-15T08:25:18;11.90;63.60
1614;DHT22;800;48.824;9.346;2023-01-15T08:27:44;11.80;64.50
1614;DHT22;800;48.824;9.346;2023-01-15T08:30:15;11.90;65.90
1614;DHT22;800;48.824;9.346;2023-01-15T08:32:41;11.60;65.00
1614;DHT22;800;48.824;9.346;2023-01-15T08:35:07;11.10;65.10
1614;DHT22;800;48.824;9.346;2023-01-15T08:37:33;11.00;67.10
1614;DHT22;800;48.824;9.346;2023-01-15T08:39:59;11.20;67.30
1614;DHT22;800;48.824;9.346;2023-01-15T08:42:24;11.20;66.30
1614;DHT22;800;48.824;9.346;2023-01-15T08:44:50;11.00;67.00
1614;DHT22;800;48.824;9.346;2023-01-15T08:47:16;11.10;67.40
1614;DHT22;800;48.824;9.346;2023-01-15T08:49:41;11.20;67.20
1614;DHT22;800;48.824;9.346;2023-01-15T08:52:07;11.20;66.90
1614;DHT22;800;48.824;9.346;2023-01-15T08:54:33;11.20;67.10
1614;DHT22;800;48.824;9.346;2023-01-15T08:56:59;11.10;67.00
1614;DHT22;800;48.824;9.346;2023-01-15T08:59:27;11.20;67.30
1614;DHT22;800;48.824;9.346;2023-01-15T09:01:53;11.40;66.90
1614;DHT22;800;48.824;9.346;2023-01-15T09:04:20;11.20;65.80
1614;DHT22;800;48.824;9.346;2023-01-15T09:06:46;10.90;66.30
1614;DHT22;800;48.824;9.346;2023-01-15T09:09:12;10.60;67.00
1614;DHT22;800;48.824;9.346;2023-01-15T09:11:38;10.50;67.90
1614;DHT22;800;48.824;9.346;2023-01-15T09:14:06;10.30;68.10
1614;DHT22;800;48.824;9.346;2023-01-15T09:16:32;10.40;68.80
1614;DHT22;800;48.824;9.346;2023-01-15T09:18:57;10.60;67.70
1614;DHT22;800;48.824;9.346;2023-01-15T09:21:23;10.50;67.20
1614;DHT22;800;48.824;9.346;2023-01-15T09:23:49;10.40;67.00
1614;DHT22;800;48.824;9.346;2023-01-15T09:26:35;10.50;67.70
1614;DHT22;800;48.824;9.346;2023-01-15T09:29:03;10.70;67.50
1614;DHT22;800;48.824;9.346;2023-01-15T09:31:29;10.90;67.10
1614;DHT22;800;48.824;9.346;2023-01-15T09:33:55;11.00;66.60
1614;DHT22;800;48.824;9.346;2023-01-15T09:36:38;11.20;65.80
1614;DHT22;800;48.824;9.346;2023-01-15T09:39:04;11.40;65.10
1614;DHT22;800;48.824;9.346;2023-01-15T09:41:50;11.20;65.40
1614;DHT22;800;48.824;9.346;2023-01-15T09:47:38;10.80;65.60
1614;DHT22;800;48.824;9.346;2023-01-15T09:55:46;10.90;66.80
1614;DHT22;800;48.824;9.346;2023-01-15T09:58:14;10.80;66.40
1614;DHT22;800;48.824;9.346;2023-01-15T10:00:46;10.80;67.30
1614;DHT22;800;48.824;9.346;2023-01-15T10:08:29;10.70;66.60
1614;DHT22;800;48.824;9.346;2023-01-15T10:13:52;10.60;65.80
1614;DHT22;800;48.824;9.346;2023-01-15T10:16:28;10.60;66.70
1614;DHT22;800;48.824;9.346;2023-01-15T10:18:54;10.80;66.30
1614;DHT22;800;48.824;9.346;2023-01-15T10:21:50;10.80;65.90
1614;DHT22;800;48.824;9.346;2023-01-15T10:24:33;10.60;66.00
1614;DHT22;800;48.824;9.346;2023-01-15T10:30:04;10.80;66.40
1614;DHT22;800;48.824;9.346;2023-01-15T10:35:41;10.60;66.50
1614;DHT22;800;48.824;9.346;2023-01-15T10:38:18;10.50;66.50
1614;DHT22;800;48.824;9.346;2023-01-15T10:46:09;10.60;65.60
1614;DHT22;800;48.824;9.346;2023-01-15T10:51:36;10.50;64.90
1614;DHT22;800;48.824;9.346;2023-01-15T10:54:28;10.50;65.60
1614;DHT22;800;48.824;9.346;2023-01-15T10:57:14;10.10;64.50
1614;DHT22;800;48.824;9.346;2023-01-15T10:59:44;9.90;67.00
1614;DHT22;800;48.824;9.346;2023-01-15T11:04:53;9.10;69.60
1614;DHT22;800;48.824;9.346;2023-01-15T11:07:21;9.20;70.20
1614;DHT22;800;48.824;9.346;2023-01-15T11:09:48;8.90;69.10
1614;DHT22;800;48.824;9.346;2023-01-15T11:12:20;8.80;69.60
1614;DHT22;800;48.824;9.346;2023-01-15T11:14:47;8.70;70.20
1614;DHT22;800;48.824;9.346;2023-01-15T11:17:45;9.00;71.30
1614;DHT22;800;48.824;9.346;2023-01-15T11:20:33;8.90;69.20
1614;DHT22;800;48.824;9.346;2023-01-15T11:23:11;8.70;68.80
1614;DHT22;800;48.824;9.346;2023-01-15T11:25:39;8.60;69.40
1614;DHT22;800;48.824;9.346;2023-01-15T11:28:12;8.60;69.50
1614;DHT22;800;48.824;9.346;2023-01-15T11:30:40;8.60;69.60
1614;DHT22;800;48.824;9.346;2023-01-15T11:33:24;8.70;69.00
1614;DHT22;800;48.824;9.346;2023-01-15T11:35:52;8.60;68.70
1614;DHT22;800;48.824;9.346;2023-01-15T11:38:23;8.40;69.30
1614;DHT22;800;48.824;9.346;2023-01-15T11:41:15;8.30;69.20
1614;DHT22;800;48.824;9.346;2023-01-15T11:44:01;8.60;69.30
1614;DHT22;800;48.824;9.346;2023-01-15T11:46:45;8.70;69.30
1614;DHT22;800;48.824;9.346;2023-01-15T11:49:29;8.20;69.30
1614;DHT22;800;48.824;9.346;2023-01-15T11:52:20;8.00;69.60
1614;DHT22;800;48.824;9.346;2023-01-15T11:57:30;8.50;68.90
1614;DHT22;800;48.824;9.346;2023-01-15T11:59:57;8.40;69.20
1614;DHT22;800;48.824;9.346;2023-01-15T12:02:36;8.50;68.30
1614;DHT22;800;48.824;9.346;2023-01-15T12:05:28;8.70;68.40
1614;DHT22;800;48.824;9.346;2023-01-15T12:07:57;8.50;67.90
1614;DHT22;800;48.824;9.346;2023-01-15T12:10:48;8.60;67.90
1614;DHT22;800;48.824;9.346;2023-01-15T12:14:06;8.60;67.70
1614;DHT22;800;48.824;9.346;2023-01-15T12:16:42;8.90;66.30
1614;DHT22;800;48.824;9.346;2023-01-15T12:29:58;9.10;64.90
1614;DHT22;800;48.824;9.346;2023-01-15T12:32:31;9.00;64.00
1614;DHT22;800;48.824;9.346;2023-01-15T12:35:02;9.00;64.30
1614;DHT22;800;48.824;9.346;2023-01-15T12:37:47;9.00;63.80
1614;DHT22;800;48.824;9.346;2023-01-15T12:42:45;9.10;62.40
1614;DHT22;800;48.824;9.346;2023-01-15T12:45:35;9.10;62.90
1614;DHT22;800;48.824;9.346;2023-01-15T12:50:45;9.50;62.00
1614;DHT22;800;48.824;9.346;2023-01-15T12:53:16;9.50;61.10
1614;DHT22;800;48.824;9.346;2023-01-15T12:56:04;9.40;60.70
1614;DHT22;800;48.824;9.346;2023-01-15T12:58:57;9.50;61.50
1614;DHT22;800;48.824;9.346;2023-01-15T13:04:21;9.50;62.60
1614;DHT22;800;48.824;9.346;2023-01-15T13:06:55;9.50;60.80
1614;DHT22;800;48.824;9.346;2023-01-15T13:10:11;9.50;61.50
1614;DHT22;800;48.824;9.346;2023-01-15T13:12:32;9.40;61.00
1614;DHT22;800;48.824;9.346;2023-01-15T13:14:59;9.50;61.20
1614;DHT22;800;48.824;9.346;2023-01-15T13:17:54;9.70;61.10
1614;DHT22;800;48.824;9.346;2023-01-15T13:21:03;10.00;59.50
1614;DHT22;800;48.824;9.346;2023-01-15T13:23:35;10.10;59.00
1614;DHT22;800;48.824;9.346;2023-01-15T13:29:11;10.40;58.10
1614;DHT22;800;48.824;9.346;2023-01-15T13:34:26;10.10;57.20
1614;DHT22;800;48.824;9.346;2023-01-15T13:36:57;10.20;57.10
1614;DHT22;800;48.824;9.346;2023-01-15T13:39:27;10.30;57.20
1614;DHT22;800;48.824;9.346;2023-01-15T13:41:57;10.40;57.50
1614;DHT22;800;48.824;9.346;2023-01-15T13:44:48;10.30;57.60
1614;DHT22;800;48.824;9.346;2023-01-15T13:47:24;10.30;57.80
1614;DHT22;800;48.824;9.346;2023-01-15T13:49:55;10.30;58.00
1614;DHT22;800;48.824;9.346;2023-01-15T13:52:32;10.30;57.70
1614;DHT22;800;48.824;9.346;2023-01-15T13:57:43;10.20;58.70
1614;DHT22;800;48.824;9.346;2023-01-15T14:00:36;10.20;57.80
1614;DHT22;800;48.824;9.346;2023-01-15T14:03:24;10.30;57.80
1614;DHT22;800;48.824;9.346;2023-01-15T14:05:55;10.10;57.80
1614;DHT22;800;48.824;9.346;2023-01-15T14:08:42;10.20;58.20
1614;DHT22;800;48.824;9.346;2023-01-15T14:17:38;10.30;58.40
1614;DHT22;800;48.824;9.346;2023-01-15T14:26:06;10.20;57.50
1614;DHT22;800;48.824;9.346;2023-01-15T14:34:10;9.90;59.00
1614;DHT22;800;48.824;9.346;2023-01-15T14:39:30;9.50;59.50
1614;DHT22;800;48.824;9.346;2023-01-15T14:42:06;9.50;59.00
1614;DHT22;800;48.824;9.346;2023-01-15T14:47:44;9.70;58.20
1614;DHT22;800;48.824;9.346;2023-01-15T14:50:41;9.80;58.10
1614;DHT22;800;48.824;9.346;2023-01-15T14:55:55;9.50;58.00
1614;DHT22;800;48.824;9.346;2023-01-15T15:01:34;9.60;57.20
1614;DHT22;800;48.824;9.346;2023-01-15T15:07:00;9.40;57.20
1614;DHT22;800;48.824;9.346;2023-01-15T15:09:37;9.30;57.40
1614;DHT22;800;48.824;9.346;2023-01-15T15:14:58;9.50;57.20
1614;DHT22;800;48.824;9.346;2023-01-15T15:20:16;9.80;57.00
1614;DHT22;800;48.824;9.346;2023-01-15T15:22:45;9.50;56.90
1614;DHT22;800;48.824;9.346;2023-01-15T15:25:18;9.60;57.10
1614;DHT22;800;48.824;9.346;2023-01-15T15:27:45;9.90;57.20
1614;DHT22;800;48.824;9.346;2023-01-15T15:30:11;10.20;55.90
1614;DHT22;800;48.824;9.346;2023-01-15T15:32:41;9.80;56.20
1614;DHT22;800;48.824;9.346;2023-01-15T15:35:28;9.80;56.40
1614;DHT22;800;48.824;9.346;2023-01-15T15:38:03;9.90;56.70
1614;DHT22;800;48.824;9.346;2023-01-15T15:40:32;9.80;56.50
1614;DHT22;800;48.824;9.346;2023-01-15T15:43:18;9.90;56.90
1614;DHT22;800;48.824;9.346;2023-01-15T15:46:03;10.10;55.70
1614;DHT22;800;48.824;9.346;2023-01-15T15:48:50;9.80;56.60
1614;DHT22;800;48.824;9.346;2023-01-15T15:51:30;9.90;56.70
1614;DHT22;800;48.824;9.346;2023-01-15T15:54:12;9.60;56.10
1614;DHT22;800;48.824;9.346;2023-01-15T16:01:52;9.50;56.80
1614;DHT22;800;48.824;9.346;2023-01-15T16:04:18;9.50;56.50
1614;DHT22;800;48.824;9.346;2023-01-15T16:06:45;9.60;56.70
1614;DHT22;800;48.824;9.346;2023-01-15T16:09:10;9.40;56.40
1614;DHT22;800;48.824;9.346;2023-01-15T16:11:38;9.10;57.00
1614;DHT22;800;48.824;9.346;2023-01-15T16:14:06;9.20;57.70
1614;DHT22;800;48.824;9.346;2023-01-15T16:16:34;9.40;57.50
1614;DHT22;800;48.824;9.346;2023-01-15T16:19:01;9.30;57.20
1614;DHT22;800;48.824;9.346;2023-01-15T16:21:28;9.40;57.00
1614;DHT22;800;48.824;9.346;2023-01-15T16:24:00;9.50;56.90
1614;DHT22;800;48.824;9.346;2023-01-15T16:26:34;9.50;56.80
1614;DHT22;800;48.824;9.346;2023-01-15T16:29:04;9.50;56.80
1614;DHT22;800;48.824;9.346;2023-01-15T16:31:34;9.60;56.70
1614;DHT22;800;48.824;9.346;2023-01-15T16:34:00;9.40;56.60
1614;DHT22;800;48.824;9.346;2023-01-15T16:36:27;9.10;56.70
1614;DHT22;800;48.824;9.346;2023-01-15T16:38:54;9.20;57.10
1614;DHT22;800;48.824;9.346;2023-01-15T16:41:31;9.10;57.00
1614;DHT22;800;48.824;9.346;2023-01-15T16:44:05;8.70;57.10
1614;DHT22;800;48.824;9.346;2023-01-15T16:46:34;8.40;57.90
1614;DHT22;800;48.824;9.346;2023-01-15T16:49:24;8.60;58.20
1614;DHT22;800;48.824;9.346;2023-01-15T16:51:52;8.50;58.40
1614;DHT22;800;48.824;9.346;2023-01-15T16:57:29;8.40;58.60
1614;DHT22;800;48.824;9.346;2023-01-15T16:59:58;8.10;58.40
1614;DHT22;800;48.824;9.346;2023-01-15T17:02:32;8.00;58.70
1614;DHT22;800;48.824;9.346;2023-01-15T17:04:59;8.10;58.90
1614;DHT22;800;48.824;9.346;2023-01-15T17:07:35;8.20;58.60
1614;DHT22;800;48.824;9.346;2023-01-15T17:10:05;8.40;58.50
1614;DHT22;800;48.824;9.346;2023-01-15T17:12:42;8.40;58.30
1614;DHT22;800;48.824;9.346;2023-01-15T17:17:46;8.10;58.60
1614;DHT22;800;48.824;9.346;2023-01-15T17:20:13;8.00;58.90
1614;DHT22;800;48.824;9.346;2023-01-15T17:22:43;8.20;59.00
1614;DHT22;800;48.824;9.346;2023-01-15T17:25:23;8.20;58.70
1614;DHT22;800;48.824;9.346;2023-01-15T17:27:51;8.20;58.70
1614;DHT22;800;48.824;9.346;2023-01-15T17:30:17;8.20;58.70
1614;DHT22;800;48.824;9.346;2023-01-15T17:32:43;8.00;58.70
1614;DHT22;800;48.824;9.346;2023-01-15T17:35:33;8.00;58.90
1614;DHT22;800;48.824;9.346;2023-01-15T17:37:59;8.10;59.00
1614;DHT22;800;48.824;9.346;2023-01-15T17:40:25;8.00;58.80
1614;DHT22;800;48.824;9.346;2023-01-15T17:42:51;8.00;58.90
1614;DHT22;800;48.824;9.346;2023-01-15T17:45:20;8.20;58.80
1614;DHT22;800;48.824;9.346;2023-01-15T17:47:47;8.20;58.80
1614;DHT22;800;48.824;9.346;2023-01-15T17:50:13;8.10;58.70
1614;DHT22;800;48.824;9.346;2023-01-15T17:52:39;8.10;58.70
1614;DHT22;800;48.824;9.346;2023-01-15T17:55:05;8.00;58.60
1614;DHT22;800;48.824;9.346;2023-01-15T17:57:50;8.10;59.00
1614;DHT22;800;48.824;9.346;2023-01-15T18:00:34;8.10;58.80
1614;DHT22;800;48.824;9.346;2023-01-15T18:03:20;8.10;58.70
1614;DHT22;800;48.824;9.346;2023-01-15T18:06:07;7.90;58.70
1614;DHT22;800;48.824;9.346;2023-01-15T18:08:34;8.00;59.50
1614;DHT22;800;48.824;9.346;2023-01-15T18:11:00;8.20;58.80
1614;DHT22;800;48.824;9.346;2023-01-15T18:13:26;8.20;58.70
1614;DHT22;800;48.824;9.346;2023-01-15T18:15:51;8.30;58.60
1614;DHT22;800;48.824;9.346;2023-01-15T18:18:17;8.30;58.20
1614;DHT22;800;48.824;9.346;2023-01-15T18:20:43;8.30;58.30
1614;DHT22;800;48.824;9.346;2023-01-15T18:23:09;8.40;58.20
1614;DHT22;800;48.824;9.346;2023-01-15T18:25:34;8.20;57.90
1614;DHT22;800;48.824;9.346;2023-01-15T18:28:00;8.20;58.10
1614;DHT22;800;48.824;9.346;2023-01-15T18:30:26;8.20;58.20
1614;DHT22;800;48.824;9.346;2023-01-15T18:32:52;8.30;58.10
1614;DHT22;800;48.824;9.346;2023-01-15T18:35:17;8.10;58.20
1614;DHT22;800;48.824;9.346;2023-01-15T18:37:43;7.90;58.40
1614;DHT22;800;48.824;9.346;2023-01-15T18:40:10;8.00;58.80
1614;DHT22;800;48.824;9.346;2023-01-15T18:42:39;8.10;58.40
1614;DHT22;800;48.824;9.346;2023-01-15T18:45:23;8.10;58.40
1614;DHT22;800;48.824;9.346;2023-01-15T18:48:07;8.10;58.50
1614;DHT22;800;48.824;9.346;2023-01-15T18:50:32;8.20;58.30
1614;DHT22;800;48.824;9.346;2023-01-15T18:52:58;8.10;58.00
1614;DHT22;800;48.824;9.346;2023-01-15T18:55:24;8.10;58.30
1614;DHT22;800;48.824;9.346;2023-01-15T18:57:53;8.10;58.40